RJOP(METAR)
07/27 17:00
METAR RJOP 270800Z 02009KT 9999 FEW030 BKN/// 32/22 Q0999 RMK 1CU030
A2950=
戻る
トップページへ戻る
IMOC Co,.Ltd.